Time;durP1;ratioP1;P1;durP2;ratioP2;P2;SDS_P1;SDS_P2;PMS_P1;PMS_P2;Temp;Humidity;BMP_temperature;BMP_pressure;BME280_temperature;BME280_humidity;BME280_pressure;Samples;Min_cycle;Max_cycle;Signal;HPM_P1;HPM_P2
2021/03/30 00:01:14;;;;;;;4.33;2.33;;;;;;;12.36;51.06;100813.00;5031359;28;20197;-78
2021/03/30 00:04:39;;;;;;;3.67;2.27;;;;;;;12.33;51.51;100816.06;5025796;23;20233;-77
2021/03/30 00:07:49;;;;;;;4.03;2.20;;;;;;;12.32;51.76;100809.88;5083263;22;20229;-78
2021/03/30 00:11:19;;;;;;;2.57;2.10;;;;;;;12.17;53.00;100801.16;5036175;28;20206;-78
2021/03/30 00:14:48;;;;;;;3.30;2.10;;;;;;;12.09;52.87;100795.13;5016507;28;20268;-78
2021/03/30 00:17:48;;;;;;;3.03;2.33;;;;;;;12.05;52.34;100797.38;5049039;28;20228;-78
2021/03/30 00:21:07;;;;;;;4.23;2.20;;;;;;;12.11;53.45;100814.56;5051642;23;20272;-78
2021/03/30 00:25:11;;;;;;;6.20;2.43;;;;;;;12.06;52.33;100796.38;5050743;22;20214;-78
2021/03/30 00:28:57;;;;;;;5.90;2.50;;;;;;;12.00;52.03;100789.09;5051917;28;20210;-77
2021/03/30 00:32:27;;;;;;;4.37;2.80;;;;;;;12.03;52.15;100796.78;5055304;23;20264;-78
2021/03/30 00:36:00;;;;;;;4.07;3.10;;;;;;;11.83;52.47;100769.00;4447873;23;17624168;-78
2021/03/30 00:39:09;;;;;;;6.57;2.97;;;;;;;11.89;52.08;100782.47;5056423;23;20232;-77
2021/03/30 00:42:38;;;;;;;4.20;3.07;;;;;;;12.05;52.37;100801.94;5061279;23;20234;-78
2021/03/30 00:45:44;;;;;;;6.17;3.30;;;;;;;12.03;53.85;100802.16;5070544;23;20293;-78
2021/03/30 00:49:31;;;;;;;3.43;2.63;;;;;;;12.02;53.69;100805.84;5025339;28;20213;-78
2021/03/30 00:52:38;;;;;;;4.43;3.10;;;;;;;11.89;54.78;100782.47;5010149;28;20211;-78
2021/03/30 00:56:02;;;;;;;6.80;3.60;;;;;;;11.87;55.39;100786.38;5021110;23;20217;-78
2021/03/30 00:59:12;;;;;;;8.13;2.87;;;;;;;11.95;55.23;100791.56;5065303;23;20241;-77
2021/03/30 01:03:07;;;;;;;6.83;3.27;;;;;;;11.90;55.64;100789.47;5133832;23;20255;-79
2021/03/30 01:06:49;;;;;;;6.80;3.47;;;;;;;11.88;55.46;100786.19;5050513;28;20198;-78
2021/03/30 01:09:57;;;;;;;6.37;3.00;;;;;;;11.88;55.73;100788.84;5044608;28;20250;-77
2021/03/30 01:13:51;;;;;;;4.80;3.00;;;;;;;11.86;56.22;100790.06;4982402;23;20219;-77
2021/03/30 01:17:24;;;;;;;3.97;2.90;;;;;;;11.82;55.95;100783.44;5012778;28;20246;-80
2021/03/30 01:21:17;;;;;;;3.37;3.07;;;;;;;11.76;56.71;100782.38;5057128;23;20226;-80
2021/03/30 01:25:20;;;;;;;5.27;3.00;;;;;;;11.76;56.26;100785.06;4955508;29;20241;-77
2021/03/30 01:29:27;;;;;;;3.80;2.87;;;;;;;11.73;56.32;100788.16;4998439;23;20660;-78
2021/03/30 01:33:33;;;;;;;5.67;2.83;;;;;;;11.68;57.14;100779.00;5044670;23;20231;-77
2021/03/30 01:36:54;;;;;;;4.73;3.00;;;;;;;11.61;57.36;100775.47;5090660;23;20685;-80
2021/03/30 01:44:11;;;;;;;3.37;2.50;;;;;;;11.45;57.14;100763.19;5045618;23;20253;-79
2021/03/30 01:47:29;;;;;;;5.37;3.10;;;;;;;11.56;56.86;100778.75;5018941;28;20287;-80
2021/03/30 01:51:07;;;;;;;5.20;3.33;;;;;;;11.56;56.07;100768.03;5031386;28;20246;-79
2021/03/30 01:54:33;;;;;;;6.67;3.53;;;;;;;11.51;54.68;100762.41;5055745;23;20295;-77
2021/03/30 01:58:02;;;;;;;6.50;3.17;;;;;;;11.66;52.76;100765.81;5072637;28;20224;-80
2021/03/30 02:01:48;;;;;;;3.80;3.40;;;;;;;11.92;50.82;100775.84;5091499;22;20292;-80
2021/03/30 02:13:26;;;;;;;5.47;3.90;;;;;;;12.34;46.73;100756.78;5055986;28;20232;-80
2021/03/30 02:17:24;;;;;;;4.83;3.50;;;;;;;12.63;45.69;100774.41;5054097;28;20181;-80
2021/03/30 02:21:49;;;;;;;6.27;3.37;;;;;;;12.84;44.56;100767.16;5175618;23;20221;-78
2021/03/30 02:25:46;;;;;;;4.83;3.50;;;;;;;12.69;44.24;100722.47;5010270;23;20225;-80
2021/03/30 02:29:16;;;;;;;5.60;3.37;;;;;;;13.14;43.42;100765.72;5080798;22;20243;-78
2021/03/30 02:33:01;;;;;;;5.67;3.70;;;;;;;13.36;42.45;100780.59;5064917;23;20260;-78
2021/03/30 02:36:26;;;;;;;6.03;3.73;;;;;;;13.55;41.65;100773.50;5105654;23;20300;-77
2021/03/30 02:40:15;;;;;;;5.63;3.57;;;;;;;13.66;41.47;100776.41;5085944;28;20225;-78
2021/03/30 02:44:07;;;;;;;4.13;3.40;;;;;;;13.65;41.67;100771.22;5061692;23;20226;-78
2021/03/30 02:47:25;;;;;;;6.47;4.13;;;;;;;13.77;41.12;100772.19;5053829;28;20264;-78
2021/03/30 02:51:19;;;;;;;7.60;4.30;;;;;;;13.84;40.91;100767.63;5053726;28;20217;-78
2021/03/30 03:06:51;;;;;;;4.47;3.50;;;;;;;14.09;40.16;100763.13;5055773;28;20222;-78
2021/03/30 03:10:07;;;;;;;4.87;3.60;;;;;;;14.12;40.29;100772.69;5042987;23;20216;-78
2021/03/30 03:17:25;;;;;;;5.57;3.80;;;;;;;14.16;39.91;100762.28;5040405;22;20250;-78
2021/03/30 03:20:34;;;;;;;6.13;4.20;;;;;;;13.98;39.88;100750.38;5072213;23;20254;-78
2021/03/30 03:24:14;;;;;;;5.80;3.77;;;;;;;14.06;40.27;100760.88;5079444;22;20334;-78
2021/03/30 03:27:33;;;;;;;4.10;3.70;;;;;;;13.92;40.44;100753.06;4992405;28;20231;-78
2021/03/30 03:31:06;;;;;;;5.83;4.10;;;;;;;13.70;40.47;100739.09;5017176;28;20636;-78
2021/03/30 03:35:03;;;;;;;5.07;3.80;;;;;;;13.77;41.33;100760.59;5023600;28;20236;-78
2021/03/30 03:38:37;;;;;;;4.83;3.90;;;;;;;13.62;41.19;100758.19;5034438;28;20220;-78
2021/03/30 03:42:21;;;;;;;6.20;3.80;;;;;;;13.44;41.34;100744.53;5033636;28;20195;-78
2021/03/30 03:45:30;;;;;;;5.57;3.43;;;;;;;13.40;41.62;100756.78;5064615;23;20648;-78
2021/03/30 03:52:34;;;;;;;5.73;3.90;;;;;;;13.19;41.97;100761.38;4967136;29;20237;-78
2021/03/30 04:00:44;;;;;;;6.50;3.97;;;;;;;12.87;43.23;100750.63;5032182;28;20222;-78
2021/03/30 04:07:11;;;;;;;5.07;3.93;;;;;;;12.74;43.53;100764.88;5028821;28;20246;-78
2021/03/30 04:10:46;;;;;;;5.33;3.57;;;;;;;12.68;43.54;100768.41;5032112;28;20226;-78
2021/03/30 04:14:04;;;;;;;4.70;4.13;;;;;;;12.61;43.42;100764.84;5031386;22;20226;-78
2021/03/30 04:17:35;;;;;;;4.77;3.20;;;;;;;12.51;44.55;100767.13;5058415;22;20241;-78
2021/03/30 04:21:35;;;;;;;6.73;3.57;;;;;;;12.45;44.46;100771.47;5056643;23;20240;-78
2021/03/30 04:25:36;;;;;;;6.80;3.67;;;;;;;12.46;43.70;100775.00;5058438;23;20233;-78
2021/03/30 04:28:50;;;;;;;4.87;3.40;;;;;;;12.27;44.27;100771.22;5057443;23;20233;-78
2021/03/30 04:31:51;;;;;;;5.87;3.40;;;;;;;12.31;44.47;100776.00;5036372;28;20206;-78
2021/03/30 04:35:27;;;;;;;6.77;3.70;;;;;;;12.27;44.62;100777.41;5049139;28;20221;-78
2021/03/30 04:39:12;;;;;;;5.47;3.47;;;;;;;12.23;44.65;100780.69;5050418;28;20225;-78
2021/03/30 04:42:55;;;;;;;5.97;3.90;;;;;;;12.00;44.93;100747.97;5089550;23;20238;-77
2021/03/30 04:46:17;;;;;;;6.33;3.60;;;;;;;12.22;44.91;100787.13;5110871;23;20225;-78
2021/03/30 04:49:58;;;;;;;5.13;3.77;;;;;;;12.24;44.57;100783.19;4990595;28;20240;-77
2021/03/30 04:53:48;;;;;;;9.00;3.70;;;;;;;12.30;44.49;100789.63;5013915;23;20232;-78
2021/03/30 04:57:23;;;;;;;12.03;4.07;;;;;;;12.39;44.51;100792.94;5005456;23;20292;-78
2021/03/30 05:01:16;;;;;;;9.50;3.70;;;;;;;12.35;44.86;100789.84;5078203;23;20237;-79
2021/03/30 05:04:35;;;;;;;6.60;3.67;;;;;;;12.40;45.07;100798.13;5049899;28;20205;-77
2021/03/30 05:08:16;;;;;;;9.20;4.13;;;;;;;12.16;44.69;100767.25;5065901;23;20225;-77
2021/03/30 05:11:14;;;;;;;7.40;3.73;;;;;;;12.33;46.72;100803.47;5068605;23;20260;-78
2021/03/30 05:14:23;;;;;;;15.30;4.20;;;;;;;12.32;46.04;100806.34;5069820;28;20212;-78
2021/03/30 05:18:12;;;;;;;20.53;5.13;;;;;;;12.41;45.67;100813.19;5059550;23;20249;-78
2021/03/30 05:21:28;;;;;;;26.33;5.20;;;;;;;12.34;45.83;100802.44;5043435;23;20239;-77
2021/03/30 05:25:07;;;;;;;36.70;5.63;;;;;;;12.36;46.34;100805.75;5057405;28;20212;-77
2021/03/30 05:28:17;;;;;;;16.00;4.27;;;;;;;12.34;47.19;100815.06;5055895;28;20871;-78
2021/03/30 05:31:40;;;;;;;23.87;4.70;;;;;;;12.39;46.81;100809.06;5071747;28;20247;-77
2021/03/30 05:39:11;;;;;;;13.20;5.57;;;;;;;12.46;47.62;100820.69;5088944;23;20288;-80
2021/03/30 05:50:51;;;;;;;22.67;5.73;;;;;;;12.31;48.92;100837.81;5043454;23;20215;-77
2021/03/30 05:54:38;;;;;;;35.60;5.57;;;;;;;12.18;48.50;100840.41;5036602;28;20219;-78
2021/03/30 05:58:40;;;;;;;29.43;5.77;;;;;;;12.07;49.41;100842.88;5076848;23;20241;-78
2021/03/30 06:02:12;;;;;;;28.23;5.37;;;;;;;11.93;49.66;100830.41;5042840;28;20229;-78
2021/03/30 06:05:47;;;;;;;28.37;6.13;;;;;;;11.94;49.14;100838.25;5066909;23;20214;-78
2021/03/30 06:09:06;;;;;;;29.33;5.87;;;;;;;11.58;49.02;100803.53;5080049;23;20241;31
2021/03/30 06:12:46;;;;;;;24.77;6.00;;;;;;;11.97;50.03;100832.47;4982314;28;20275;-78
2021/03/30 06:24:39;;;;;;;17.10;6.03;;;;;;;12.48;49.60;100850.84;5011293;23;20245;-78
2021/03/30 06:28:36;;;;;;;14.93;5.90;;;;;;;12.54;49.31;100844.69;5041113;23;20210;-78
2021/03/30 06:32:28;;;;;;;11.10;5.60;;;;;;;12.87;48.91;100856.34;5061957;22;20222;-78
2021/03/30 06:36:35;;;;;;;12.67;6.20;;;;;;;13.06;48.92;100846.63;5133902;22;20213;-78
2021/03/30 06:40:29;;;;;;;14.77;5.67;;;;;;;13.41;48.58;100863.41;5006101;28;20194;-77
2021/03/30 06:46:55;;;;;;;12.60;5.70;;;;;;;13.88;46.04;100840.75;5016603;23;20230;-78
2021/03/30 06:54:38;;;;;;;9.13;5.90;;;;;;;14.25;44.04;100828.38;5128089;23;20190;-79
2021/03/30 07:02:05;;;;;;;8.87;5.43;;;;;;;15.22;41.25;100863.06;5017206;28;20217;-80
2021/03/30 07:17:35;;;;;;;7.93;4.00;;;;;;;16.39;36.54;100857.50;5048289;23;20223;-81
2021/03/30 07:26:23;;;;;;;7.60;3.57;;;;;;;16.96;35.20;100863.41;5000652;28;20244;-91
2021/03/30 07:30:02;;;;;;;7.07;3.80;;;;;;;17.15;34.04;100864.97;5002581;28;20834;-90
2021/03/30 07:37:15;;;;;;;9.03;4.10;;;;;;;17.66;34.24;100861.63;4988586;28;20344;-92
2021/03/30 07:39:55;;;;;;;8.57;4.03;;;;;;;17.61;33.87;100850.66;4965399;28;20235;-91
2021/03/30 07:42:42;;;;;;;6.87;3.70;;;;;;;17.59;34.14;100845.47;4959727;28;20247;-91
2021/03/30 07:45:33;;;;;;;7.33;4.13;;;;;;;17.83;33.59;100849.00;4963148;28;20232;-92
2021/03/30 07:48:08;;;;;;;6.63;3.50;;;;;;;18.07;34.21;100852.50;4975094;28;20224;-92
2021/03/30 07:51:07;;;;;;;8.00;3.90;;;;;;;18.24;33.51;100850.69;4967565;28;20227;-92
2021/03/30 07:53:59;;;;;;;7.10;3.80;;;;;;;18.26;33.57;100831.44;4970715;28;20489;-91
2021/03/30 07:56:43;;;;;;;8.13;3.60;;;;;;;18.43;32.76;100854.03;4944324;28;20307;-86
2021/03/30 07:59:47;;;;;;;4.97;3.20;;;;;;;18.45;32.87;100850.03;4989050;28;20243;-91
2021/03/30 08:02:32;;;;;;;5.90;3.20;;;;;;;18.39;31.52;100834.72;4952601;28;20366;-89
2021/03/30 08:05:19;;;;;;;4.23;2.87;;;;;;;18.42;32.08;100850.53;4964740;28;20246;-91
2021/03/30 08:07:59;;;;;;;4.23;2.60;;;;;;;18.55;31.83;100835.03;4959273;28;20269;-91
2021/03/30 08:10:48;;;;;;;7.10;3.00;;;;;;;18.81;30.94;100850.72;4963146;28;20664;-91
2021/03/30 08:13:37;;;;;;;5.83;3.20;;;;;;;19.00;30.62;100863.00;4964612;28;20228;-87
2021/03/30 08:16:26;;;;;;;5.37;2.97;;;;;;;19.12;30.99;100866.50;4980424;28;20219;-90
2021/03/30 08:23:17;;;;;;;4.00;3.40;;;;;;;19.22;29.72;100857.69;5003791;28;20279;-85
2021/03/30 08:26:36;;;;;;;5.90;3.53;;;;;;;19.29;29.78;100866.50;5006032;28;20231;-82
2021/03/30 08:29:19;;;;;;;6.87;3.47;;;;;;;18.95;30.05;100814.03;5007430;28;20247;-92
2021/03/30 08:32:02;;;;;;;7.80;3.57;;;;;;;19.00;29.72;100830.41;4970910;28;20223;-94
2021/03/30 08:34:41;;;;;;;4.97;3.47;;;;;;;19.20;30.03;100838.09;4966322;28;20289;-95
2021/03/30 08:37:17;;;;;;;6.63;3.57;;;;;;;19.23;30.15;100837.59;4982351;28;20635;-91
2021/03/30 08:39:53;;;;;;;5.20;3.40;;;;;;;19.41;29.39;100850.91;4973253;28;20310;-94
2021/03/30 08:42:36;;;;;;;5.70;3.73;;;;;;;19.13;29.27;100840.16;4982876;28;20250;-95
2021/03/30 08:45:21;;;;;;;6.53;3.80;;;;;;;19.14;29.88;100847.22;4986745;28;20227;-94
2021/03/30 08:48:23;;;;;;;5.23;3.80;;;;;;;19.47;29.75;100873.59;5002888;23;20226;-87
2021/03/30 08:51:16;;;;;;;6.97;4.13;;;;;;;19.39;29.39;100866.66;5024643;28;20278;-89
2021/03/30 08:54:13;;;;;;;8.10;4.13;;;;;;;19.42;29.38;100876.19;5002418;28;20230;-91
2021/03/30 08:57:01;;;;;;;5.73;3.70;;;;;;;19.19;29.47;100815.53;5017790;28;20301;-96
2021/03/30 08:59:52;;;;;;;10.47;4.50;;;;;;;19.49;29.38;100852.44;5017533;28;20219;-88
2021/03/30 09:02:37;;;;;;;8.33;4.50;;;;;;;19.70;29.54;100881.56;5002779;28;20229;-93
2021/03/30 09:05:22;;;;;;;8.43;4.30;;;;;;;19.77;29.66;100857.75;5021697;28;20532;-92
2021/03/30 09:07:58;;;;;;;6.70;4.03;;;;;;;19.73;29.14;100854.72;5021112;28;20594;-94
2021/03/30 09:10:43;;;;;;;7.30;4.43;;;;;;;19.67;29.35;100847.56;5006313;28;20225;-94
2021/03/30 09:13:22;;;;;;;6.07;4.03;;;;;;;19.76;29.78;100865.09;5006441;28;20312;-96
2021/03/30 09:16:09;;;;;;;7.77;4.60;;;;;;;19.92;29.34;100871.56;5038723;28;20637;-96
2021/03/30 09:18:46;;;;;;;6.80;4.63;;;;;;;20.00;29.59;100864.88;5023280;28;20221;-96
2021/03/30 09:21:26;;;;;;;6.57;4.27;;;;;;;19.79;29.30;100826.50;5021518;28;20233;-96
2021/03/30 09:24:12;;;;;;;6.53;4.43;;;;;;;20.07;28.92;100868.22;4988086;28;20226;-94
2021/03/30 09:26:54;;;;;;;7.60;5.10;;;;;;;19.92;28.68;100846.28;5018845;28;20226;-96
2021/03/30 09:29:36;;;;;;;7.13;3.90;;;;;;;20.14;28.98;100866.97;5022561;28;20543;-96
2021/03/30 09:32:17;;;;;;;7.60;4.60;;;;;;;20.13;28.92;100850.88;5006176;28;20222;-89
2021/03/30 09:35:26;;;;;;;7.47;4.40;;;;;;;20.45;28.60;100868.19;5018870;28;20226;-91
2021/03/30 09:38:09;;;;;;;8.37;4.80;;;;;;;20.33;28.70;100859.34;5038060;28;20264;-88
2021/03/30 09:40:45;;;;;;;8.30;4.63;;;;;;;20.42;28.31;100846.94;5037593;28;20508;-91
2021/03/30 09:43:22;;;;;;;8.20;4.43;;;;;;;20.31;28.04;100831.53;5022074;28;20229;-87
2021/03/30 09:46:02;;;;;;;6.90;4.43;;;;;;;20.62;28.38;100852.56;5005798;28;20272;-89
2021/03/30 09:48:46;;;;;;;7.17;4.53;;;;;;;20.69;28.22;100852.38;5006656;28;20223;-83
2021/03/30 09:51:24;;;;;;;6.03;4.67;;;;;;;20.67;28.33;100834.66;5001958;28;20243;-92
2021/03/30 09:54:17;;;;;;;6.53;4.93;;;;;;;20.46;27.31;100817.28;5001864;28;20628;-93
2021/03/30 09:57:32;;;;;;;7.33;4.63;;;;;;;20.75;27.63;100848.63;4995000;28;20310;-91
2021/03/30 10:00:17;;;;;;;10.13;5.10;;;;;;;20.75;27.06;100835.03;4994458;28;20628;-88
2021/03/30 10:03:03;;;;;;;6.40;4.90;;;;;;;20.76;27.19;100833.94;5009222;28;20222;-94
2021/03/30 10:05:46;;;;;;;5.93;4.50;;;;;;;20.98;27.83;100839.31;5011184;28;20688;-94
2021/03/30 10:08:35;;;;;;;6.23;4.30;;;;;;;20.99;27.74;100822.72;4989165;28;20322;-86
2021/03/30 10:11:30;;;;;;;9.33;4.83;;;;;;;20.92;27.00;100813.09;4983097;28;20646;-95
2021/03/30 10:14:32;;;;;;;7.67;4.23;;;;;;;21.41;27.48;100844.63;5017235;28;20230;-94
2021/03/30 10:17:12;;;;;;;7.13;4.30;;;;;;;21.50;27.00;100834.88;5016857;28;20324;-92
2021/03/30 10:19:57;;;;;;;6.23;4.37;;;;;;;21.33;26.08;100820.56;5000438;28;20232;-87
2021/03/30 10:22:41;;;;;;;8.20;4.57;;;;;;;21.50;26.39;100796.69;5016881;28;20235;-89
2021/03/30 10:25:32;;;;;;;5.90;5.27;;;;;;;21.72;26.42;100823.00;5016990;28;20246;-88
2021/03/30 10:28:08;;;;;;;8.77;4.90;;;;;;;21.41;26.24;100824.72;5013809;28;20248;-87
2021/03/30 10:30:54;;;;;;;9.03;5.20;;;;;;;21.69;26.65;100818.06;5001318;28;20280;-88
2021/03/30 10:33:44;;;;;;;9.93;4.87;;;;;;;21.66;26.81;100803.03;5001666;28;20319;-92
2021/03/30 10:36:24;;;;;;;5.10;4.50;;;;;;;21.75;26.99;100814.28;5012547;28;20292;-85
2021/03/30 10:39:11;;;;;;;9.60;5.13;;;;;;;21.78;26.03;100808.31;4990441;28;20228;-87
2021/03/30 10:42:04;;;;;;;6.73;4.73;;;;;;;21.49;26.46;100799.69;5001827;28;20577;-92
2021/03/30 10:44:47;;;;;;;7.60;5.50;;;;;;;21.65;25.99;100803.31;5016842;28;20313;-93
2021/03/30 10:47:33;;;;;;;8.07;5.37;;;;;;;21.64;26.78;100791.59;5000863;28;20240;-89
2021/03/30 10:50:13;;;;;;;7.37;5.00;;;;;;;21.52;25.45;100774.59;5016568;28;20235;-91
2021/03/30 10:52:56;;;;;;;4.80;4.03;;;;;;;21.71;25.77;100764.06;4962635;28;20238;-95
2021/03/30 10:55:35;;;;;;;7.00;4.80;;;;;;;21.86;25.85;100799.59;4981168;28;20228;-84
2021/03/30 10:58:16;;;;;;;5.77;5.00;;;;;;;21.53;24.66;100758.00;4989400;28;20230;-92
2021/03/30 11:00:58;;;;;;;8.13;4.57;;;;;;;21.87;25.72;100771.25;5001392;28;20225;-86
2021/03/30 11:03:35;;;;;;;7.30;4.70;;;;;;;21.75;25.72;100741.44;4984829;28;20228;-95
2021/03/30 11:06:14;;;;;;;6.43;4.30;;;;;;;21.78;25.49;100740.94;4983956;28;20578;-93
2021/03/30 11:08:50;;;;;;;6.63;4.47;;;;;;;21.73;24.38;100765.47;4984585;28;20253;-86
2021/03/30 11:11:20;;;;;;;8.00;4.17;;;;;;;21.92;25.04;100795.81;5016757;28;20266;-89
2021/03/30 11:13:59;;;;;;;7.90;4.73;;;;;;;22.02;25.05;100771.34;5000051;28;20244;-92
2021/03/30 11:16:40;;;;;;;6.87;4.67;;;;;;;22.12;25.41;100754.16;5016357;28;20229;-94
2021/03/30 11:19:24;;;;;;;7.70;5.47;;;;;;;21.88;24.91;100768.22;4999886;28;20229;-92
2021/03/30 11:21:59;;;;;;;7.60;5.13;;;;;;;22.02;24.34;100763.16;5016117;28;20256;-96
2021/03/30 11:24:39;;;;;;;5.77;5.17;;;;;;;21.97;24.69;100760.41;4983288;28;20276;-96
2021/03/30 11:27:18;;;;;;;6.83;4.93;;;;;;;22.00;24.94;100713.47;5016073;28;20567;-92
2021/03/30 11:30:05;;;;;;;5.70;4.67;;;;;;;22.56;25.00;100758.09;4998698;28;20223;-96
2021/03/30 11:32:50;;;;;;;6.70;4.90;;;;;;;22.53;24.89;100768.75;5002100;28;20232;-94
2021/03/30 11:38:30;;;;;;;6.23;4.83;;;;;;;22.73;24.84;100764.13;5015304;28;20504;-91
2021/03/30 11:41:11;;;;;;;7.57;5.07;;;;;;;22.74;24.15;100727.53;4999622;28;20642;-96
2021/03/30 11:43:53;;;;;;;5.73;4.43;;;;;;;22.90;24.63;100755.69;4983727;28;20645;-93
2021/03/30 11:46:31;;;;;;;5.37;4.87;;;;;;;22.78;23.28;100717.69;5005326;28;20237;-91
2021/03/30 11:49:09;;;;;;;7.20;4.43;;;;;;;22.61;23.11;100708.09;4994134;28;20312;-93
2021/03/30 11:51:46;;;;;;;6.30;4.53;;;;;;;22.71;23.76;100687.13;4983431;28;20232;-95
2021/03/30 11:54:32;;;;;;;7.23;4.60;;;;;;;22.80;24.10;100731.09;4997679;28;20688;-93
2021/03/30 11:57:24;;;;;;;6.27;4.80;;;;;;;22.99;23.82;100721.25;4984754;28;20220;-87
2021/03/30 12:00:19;;;;;;;7.50;4.97;;;;;;;22.68;23.26;100679.41;5001242;28;20228;-94
2021/03/30 12:03:11;;;;;;;6.77;5.33;;;;;;;23.07;23.41;100726.16;4982830;28;20227;-96
2021/03/30 12:06:05;;;;;;;6.97;4.80;;;;;;;22.86;24.01;100672.63;4995169;28;20668;-94
2021/03/30 12:09:03;;;;;;;8.53;5.40;;;;;;;22.86;23.33;100674.53;4998185;28;20577;-94
2021/03/30 12:11:56;;;;;;;8.90;5.33;;;;;;;22.95;23.31;100689.28;4980841;28;20233;-96
2021/03/30 12:14:41;;;;;;;8.57;5.07;;;;;;;22.98;23.32;100686.81;4987919;28;20230;-94
2021/03/30 12:17:39;;;;;;;6.67;4.70;;;;;;;23.11;23.23;100696.34;5027866;23;20339;-86
2021/03/30 12:20:29;;;;;;;6.47;5.17;;;;;;;22.94;23.89;100676.69;4983233;28;20326;-90
2021/03/30 12:23:09;;;;;;;8.80;5.60;;;;;;;23.18;22.64;100677.75;4997397;28;20220;-89
2021/03/30 12:26:03;;;;;;;5.57;4.97;;;;;;;23.27;22.36;100687.00;4978617;28;20224;-91
2021/03/30 12:28:44;;;;;;;8.63;5.40;;;;;;;23.37;22.09;100684.25;4979708;28;20230;-92
2021/03/30 12:31:35;;;;;;;8.93;5.20;;;;;;;23.34;22.54;100673.84;4980982;28;20585;-90
2021/03/30 12:34:14;;;;;;;8.17;6.00;;;;;;;23.24;23.16;100668.41;4978659;28;20598;-91
2021/03/30 12:37:11;;;;;;;10.43;6.33;;;;;;;22.71;22.93;100648.06;4968807;28;20244;-92
2021/03/30 12:40:03;;;;;;;6.97;5.50;;;;;;;23.06;23.65;100645.22;4981019;28;20711;-90
2021/03/30 12:42:56;;;;;;;7.80;5.30;;;;;;;22.98;23.28;100640.34;4981160;28;20252;-90
2021/03/30 12:45:44;;;;;;;7.67;5.30;;;;;;;23.29;22.74;100649.25;4984305;28;20220;-86
2021/03/30 12:48:38;;;;;;;7.83;5.10;;;;;;;23.32;22.09;100645.16;4980399;28;20506;-91
2021/03/30 12:51:29;;;;;;;9.03;5.77;;;;;;;23.20;22.92;100653.66;4975459;28;20241;-89
2021/03/30 12:54:27;;;;;;;6.63;4.97;;;;;;;23.34;22.89;100646.50;4979383;28;20227;-91
2021/03/30 12:57:18;;;;;;;8.40;5.23;;;;;;;23.36;22.94;100636.13;4983178;28;20230;-88
2021/03/30 13:00:08;;;;;;;7.80;5.78;;;;;;;23.58;22.56;100628.38;4984088;28;20735;-89
2021/03/30 13:02:46;;;;;;;7.60;5.07;;;;;;;23.56;22.23;100618.84;4961463;28;20309;-92
2021/03/30 13:05:32;;;;;;;8.45;5.85;;;;;;;23.34;22.56;100596.47;4992516;28;20225;-93
2021/03/30 13:08:24;;;;;;;5.97;5.28;;;;;;;23.59;22.93;100610.88;5000045;28;20237;-87
2021/03/30 13:11:14;;;;;;;7.95;5.40;;;;;;;23.52;22.68;100601.34;4963703;28;20373;-86
2021/03/30 13:14:05;;;;;;;6.60;5.90;;;;;;;23.76;22.68;100626.91;4974872;28;20248;-87
2021/03/30 13:16:56;;;;;;;9.17;5.73;;;;;;;23.80;22.90;100613.47;4974304;28;20235;-89
2021/03/30 13:19:51;;;;;;;7.73;5.10;;;;;;;23.94;22.62;100629.00;4980241;28;20315;-85
2021/03/30 13:22:41;;;;;;;5.57;4.50;;;;;;;23.74;22.03;100618.19;4997852;28;20313;-91
2021/03/30 13:25:30;;;;;;;8.80;4.95;;;;;;;23.72;21.77;100603.97;4983327;28;20223;-93
2021/03/30 13:28:17;;;;;;;5.93;5.30;;;;;;;23.49;22.60;100590.97;4973360;28;20234;-88
2021/03/30 13:31:11;;;;;;;8.47;5.20;;;;;;;23.58;22.56;100605.69;4965308;28;20235;-92
2021/03/30 13:34:02;;;;;;;8.03;5.03;;;;;;;23.55;22.80;100596.16;4994379;28;20237;-90
2021/03/30 13:36:58;;;;;;;7.07;5.65;;;;;;;23.50;22.53;100596.16;4980936;28;20317;-90
2021/03/30 13:39:52;;;;;;;5.85;5.03;;;;;;;23.62;23.27;100576.66;4994201;28;20269;-89
2021/03/30 13:42:42;;;;;;;8.88;5.78;;;;;;;23.88;22.58;100600.03;4993634;28;20309;-86
2021/03/30 13:45:31;;;;;;;4.70;4.30;;;;;;;23.98;22.52;100596.41;4993874;28;20232;-88
2021/03/30 13:48:22;;;;;;;6.73;5.10;;;;;;;23.96;22.05;100593.97;4979312;28;20329;-88
2021/03/30 13:51:12;;;;;;;7.53;5.35;;;;;;;24.03;21.92;100593.63;4994820;28;20228;-88
2021/03/30 13:54:03;;;;;;;8.15;5.10;;;;;;;24.05;22.03;100607.84;4985422;28;20537;-92
2021/03/30 13:56:46;;;;;;;4.63;3.78;;;;;;;24.43;22.53;100587.84;5011569;28;20232;-87
2021/03/30 13:59:27;;;;;;;6.45;4.32;;;;;;;24.60;21.71;100570.97;4997123;28;20223;-89
2021/03/30 14:02:21;;;;;;;4.68;4.20;;;;;;;24.73;23.28;100572.22;5010188;28;20239;-90
2021/03/30 14:05:16;;;;;;;6.25;4.05;;;;;;;24.98;21.81;100580.19;4997806;28;20306;-92
2021/03/30 14:07:55;;;;;;;8.45;4.85;;;;;;;25.18;21.47;100579.94;4997788;28;20224;-91
2021/03/30 14:10:33;;;;;;;8.05;4.65;;;;;;;25.16;20.88;100571.19;5000721;28;20577;-90
2021/03/30 14:13:35;;;;;;;8.63;4.97;;;;;;;25.42;20.40;100569.75;5002938;28;20234;-87
2021/03/30 14:17:09;;;;;;;8.65;4.82;;;;;;;25.51;20.52;100571.84;4996480;28;20274;-90
2021/03/30 14:19:57;;;;;;;7.90;4.72;;;;;;;25.49;20.30;100582.28;4980956;28;20270;-88
2021/03/30 14:22:47;;;;;;;6.88;4.60;;;;;;;25.56;20.58;100564.38;4985124;28;20573;-91
2021/03/30 14:25:53;;;;;;;6.07;4.32;;;;;;;25.61;20.06;100555.25;4997146;28;20231;-89
2021/03/30 14:28:50;;;;;;;5.68;4.32;;;;;;;25.64;19.67;100541.75;4972071;28;20544;-90
2021/03/30 14:31:56;;;;;;;4.90;4.40;;;;;;;26.20;20.13;100560.06;4994478;28;20238;-91
2021/03/30 14:34:50;;;;;;;8.10;4.50;;;;;;;26.14;19.87;100567.59;4981894;28;20236;-84
2021/03/30 14:37:51;;;;;;;8.68;4.18;;;;;;;26.51;18.94;100552.94;4998167;28;20238;-85
2021/03/30 14:41:00;;;;;;;7.25;4.00;;;;;;;26.84;18.85;100542.69;4996437;28;20227;-86
2021/03/30 14:44:15;;;;;;;5.95;3.67;;;;;;;26.69;18.55;100543.81;4994814;28;20229;-92
2021/03/30 14:53:58;;;;;;;5.05;3.80;;;;;;;25.99;19.96;100551.34;4990641;28;20233;-90
2021/03/30 14:56:50;;;;;;;6.93;4.22;;;;;;;25.53;20.66;100529.25;4996651;28;20642;-87
2021/03/30 14:59:58;;;;;;;6.63;3.85;;;;;;;25.90;20.26;100541.38;4968419;28;20224;-89
2021/03/30 15:05:56;;;;;;;4.00;3.58;;;;;;;25.44;20.01;100504.41;4977039;28;20338;-87
2021/03/30 15:08:37;;;;;;;5.97;3.22;;;;;;;25.40;20.22;100516.28;4987261;28;20243;-86
2021/03/30 15:11:43;;;;;;;7.40;3.55;;;;;;;25.40;19.79;100503.38;4990911;28;20239;-93
2021/03/30 15:14:38;;;;;;;6.35;3.50;;;;;;;25.56;20.32;100528.72;4981036;28;20233;-89
2021/03/30 15:17:28;;;;;;;4.60;3.17;;;;;;;25.39;20.28;100523.69;4976758;28;20230;-91
2021/03/30 15:20:17;;;;;;;6.57;3.40;;;;;;;25.01;20.16;100522.00;4986266;28;20254;-88
2021/03/30 15:23:05;;;;;;;5.22;3.10;;;;;;;24.96;20.34;100513.88;4996968;28;20623;-85
2021/03/30 15:25:54;;;;;;;3.90;3.30;;;;;;;24.91;20.69;100508.47;4979599;28;20306;-88
2021/03/30 15:28:41;;;;;;;5.03;3.10;;;;;;;24.62;21.30;100527.66;4978948;28;20229;-90
2021/03/30 15:31:32;;;;;;;6.15;3.17;;;;;;;24.31;20.88;100521.69;4996079;28;20292;-85
2021/03/30 15:34:22;;;;;;;6.93;3.58;;;;;;;23.87;21.74;100504.53;4974526;28;20225;-90
2021/03/30 15:37:07;;;;;;;8.65;3.50;;;;;;;23.82;21.73;100515.53;4977034;28;20318;-87
2021/03/30 15:39:54;;;;;;;6.75;3.30;;;;;;;23.45;22.23;100502.38;4988065;28;20235;-88
2021/03/30 15:42:47;;;;;;;4.07;2.92;;;;;;;23.36;21.93;100509.53;4963834;28;20243;-86
2021/03/30 15:45:44;;;;;;;3.83;2.53;;;;;;;23.17;22.74;100512.09;4983721;28;20234;-88
2021/03/30 15:48:35;;;;;;;7.40;3.17;;;;;;;23.10;23.42;100489.69;4970386;28;20522;-90
2021/03/30 15:51:19;;;;;;;4.07;3.33;;;;;;;23.23;23.40;100506.31;4965139;28;20648;-89
2021/03/30 15:54:06;;;;;;;5.53;2.90;;;;;;;23.09;23.16;100496.28;4957437;28;20528;-83
2021/03/30 15:56:56;;;;;;;5.28;2.95;;;;;;;23.01;23.41;100499.59;4984535;28;20317;-87
2021/03/30 15:59:46;;;;;;;4.25;2.97;;;;;;;22.81;23.60;100493.13;4984360;28;20757;-84
2021/03/30 16:02:53;;;;;;;;;;;;;;;;;;;;;
2021/03/30 16:05:46;;;;;;;5.93;2.90;;;;;;;22.40;24.29;100477.91;4990528;28;20641;-87
2021/03/30 16:08:32;;;;;;;7.40;2.90;;;;;;;22.11;24.08;100474.19;4967053;28;20241;-87
2021/03/30 16:11:22;;;;;;;7.03;3.50;;;;;;;21.98;24.81;100482.94;5000778;28;20320;-89